Decoded Metar for PAOH (HOONAH in AK, USA) (IATA:OOH) | Meteo·Mobile Aviation Weather
aviador You're here:

PAOH Decoded Metar

HOONAH in AK, USA
Report Time2019-01-23 06:56:00
UTC Time2019-01-23 07:48:55
Flight Rules vfr VFR
WindCalm
Visibility9999 m
Phenomena:N/A
Clouds:N/A
Expected CloudBase > 400 ft AGL from Temp-Dew spread
CeilingNone
Temp-2°C (ISA -17)
Dew Point-3°C (93% RH)
AAT-4.4°C
QNH1019 hPa
Density Alt-2,188 ft
Elevation30 ft
Report Wrong Elevation
Raw Report
PAOH 230656Z AUTO 00000KT 10SM CLR M02/M03 A3010 RMK AO2 SLP195
T10221028 FZRANO=

Extra information for PAOH:More info

Metar Taf Metar & Taf Last 4 Metars F.Rules Stats Wind Profile Meteogram Temp Stats Airport Information Weather charts Add Link Nearby VenuesMetar ALERT Operation Metar Decoded Social comments

AIRNAV info for PAOH